createdAt,value
2023-04-10T00:00:31.540Z,8.35
2023-04-10T00:03:34.035Z,7.80
2023-04-10T00:06:36.351Z,9.20
2023-04-10T00:09:38.786Z,7.50
2023-04-10T00:12:41.201Z,8.63
2023-04-10T00:15:43.669Z,9.15
2023-04-10T00:18:46.424Z,7.00
2023-04-10T00:21:48.619Z,8.65
2023-04-10T00:24:50.769Z,7.70
2023-04-10T00:27:53.525Z,7.57
2023-04-10T00:30:55.812Z,9.15
2023-04-10T00:33:58.306Z,8.35
2023-04-10T00:37:00.663Z,7.93
2023-04-10T00:40:04.432Z,7.35
2023-04-10T00:43:06.825Z,8.33
2023-04-10T00:46:09.130Z,6.80
2023-04-10T00:49:11.799Z,6.68
2023-04-10T00:52:14.227Z,8.30
2023-04-10T00:55:16.687Z,7.00
2023-04-10T00:58:18.942Z,7.03
2023-04-10T01:01:21.475Z,8.27
2023-04-10T01:04:24.221Z,8.93
2023-04-10T01:07:49.844Z,6.30
2023-04-10T01:10:59.624Z,7.47
2023-04-10T01:14:14.751Z,7.07
2023-04-10T01:17:37.265Z,5.20
2023-04-10T01:20:41.384Z,7.93
2023-04-10T01:23:49.779Z,7.43
2023-04-10T01:27:09.244Z,7.50
2023-04-10T01:30:14.800Z,6.63
2023-04-10T01:33:18.551Z,6.05
2023-04-10T01:36:22.731Z,6.70
2023-04-10T01:39:26.195Z,5.55
2023-04-10T01:42:30.931Z,5.90
2023-04-10T01:45:33.730Z,6.13
2023-04-10T01:48:36.274Z,6.13
2023-04-10T01:51:38.839Z,5.60
2023-04-10T01:54:48.533Z,5.75
2023-04-10T01:57:57.752Z,4.88
2023-04-10T02:01:00.380Z,5.90
2023-04-10T02:04:03.215Z,5.53
2023-04-10T02:07:26.263Z,5.50
2023-04-10T02:10:31.610Z,5.15
2023-04-10T02:13:34.682Z,5.78
2023-04-10T02:16:38.429Z,6.93
2023-04-10T02:19:41.375Z,5.55
2023-04-10T02:22:44.134Z,6.15
2023-04-10T02:25:46.622Z,5.32
2023-04-10T02:28:48.874Z,5.45
2023-04-10T02:31:51.065Z,6.10
2023-04-10T02:34:54.818Z,4.13
2023-04-10T02:37:57.246Z,5.38
2023-04-10T02:40:59.439Z,4.70
2023-04-10T02:44:01.868Z,5.38
2023-04-10T02:47:04.509Z,5.43
2023-04-10T02:50:09.425Z,5.25
2023-04-10T02:53:16.090Z,5.75
2023-04-10T02:56:19.039Z,4.75
2023-04-10T02:59:21.945Z,5.28
2023-04-10T03:02:24.230Z,5.47
2023-04-10T03:05:27.175Z,5.55
2023-04-10T03:08:30.443Z,5.75
2023-04-10T03:11:33.249Z,5.70
2023-04-10T03:14:36.325Z,4.97
2023-04-10T03:17:38.652Z,5.03
2023-04-10T03:20:44.500Z,5.95
2023-04-10T03:23:47.295Z,6.50
2023-04-10T03:26:49.485Z,4.45
2023-04-10T03:29:51.767Z,4.68
2023-04-10T03:32:54.456Z,3.90
2023-04-10T03:35:57.461Z,5.80
2023-04-10T03:38:59.768Z,4.18
2023-04-10T03:42:02.122Z,5.93
2023-04-10T03:45:06.629Z,5.10
2023-04-10T03:48:08.850Z,4.87
2023-04-10T03:51:18.215Z,3.88
2023-04-10T03:54:21.046Z,5.45
2023-04-10T03:57:23.671Z,5.00
2023-04-10T04:00:28.109Z,4.40
2023-04-10T04:03:38.081Z,4.17
2023-04-10T04:06:59.108Z,4.72
2023-04-10T04:10:21.664Z,3.92
2023-04-10T04:13:32.563Z,4.85
2023-04-10T04:16:41.870Z,5.03
2023-04-10T04:20:05.170Z,5.07
2023-04-10T04:23:23.965Z,5.25
2023-04-10T04:26:48.367Z,4.55
2023-04-10T04:30:09.271Z,3.25
2023-04-10T04:33:29.786Z,3.95
2023-04-10T04:36:35.243Z,4.03
2023-04-10T04:39:55.751Z,5.20
2023-04-10T04:42:57.908Z,4.93
2023-04-10T04:46:20.400Z,4.70
2023-04-10T04:49:54.604Z,3.85
2023-04-10T04:53:15.036Z,5.33
2023-04-10T04:56:27.943Z,4.65
2023-04-10T04:59:48.592Z,5.32
2023-04-10T05:02:57.954Z,5.55
2023-04-10T05:06:08.836Z,4.50
2023-04-10T05:09:22.054Z,4.27
2023-04-10T05:13:02.820Z,5.70
2023-04-10T05:16:21.952Z,5.85
2023-04-10T05:19:43.204Z,4.88
2023-04-10T05:23:11.814Z,4.88
2023-04-10T05:26:30.162Z,4.93
2023-04-10T05:29:46.238Z,4.88
2023-04-10T05:32:57.716Z,5.88
2023-04-10T05:36:22.976Z,5.10
2023-04-10T05:39:30.828Z,5.30
2023-04-10T05:43:05.260Z,5.13
2023-04-10T05:46:29.213Z,5.80
2023-04-10T05:49:49.018Z,6.50
2023-04-10T05:53:13.809Z,5.43
2023-04-10T05:56:39.346Z,5.43
2023-04-10T06:00:19.804Z,5.87
2023-04-10T06:03:45.174Z,5.88
2023-04-10T06:06:47.805Z,6.45
2023-04-10T06:09:50.050Z,6.40
2023-04-10T06:12:52.318Z,6.80
2023-04-10T06:15:58.092Z,6.90
2023-04-10T06:19:00.565Z,6.35
2023-04-10T06:22:02.840Z,6.82
2023-04-10T06:25:05.551Z,6.28
2023-04-10T06:28:07.804Z,7.97
2023-04-10T06:31:10.199Z,6.47
2023-04-10T06:34:14.208Z,6.85
2023-04-10T06:37:33.334Z,6.32
2023-04-10T06:40:37.982Z,6.63
2023-04-10T06:43:40.396Z,5.75
2023-04-10T06:46:42.722Z,5.73
2023-04-10T06:49:44.944Z,6.13
2023-04-10T06:52:48.058Z,5.30
2023-04-10T06:55:50.202Z,5.72
2023-04-10T06:58:52.625Z,5.00
2023-04-10T07:01:55.014Z,5.27
2023-04-10T07:04:57.357Z,4.75
2023-04-10T07:07:59.553Z,4.72
2023-04-10T07:11:02.114Z,5.20
2023-04-10T07:14:04.332Z,4.97
2023-04-10T07:17:06.576Z,4.47
2023-04-10T07:20:09.122Z,5.68
2023-04-10T07:23:11.820Z,6.63
2023-04-10T07:26:14.785Z,5.03
2023-04-10T07:29:17.022Z,6.63
2023-04-10T07:32:19.460Z,5.73
2023-04-10T07:35:21.912Z,5.32
2023-04-10T07:38:24.843Z,5.70
2023-04-10T07:41:27.083Z,5.00
2023-04-10T07:44:29.765Z,5.45
2023-04-10T07:47:32.046Z,5.03
2023-04-10T07:50:34.275Z,5.97
2023-04-10T07:53:36.996Z,5.28
2023-04-10T07:56:39.133Z,5.53
2023-04-10T07:59:41.282Z,4.88
2023-04-10T08:02:43.542Z,4.53
2023-04-10T08:05:46.199Z,4.45
2023-04-10T08:08:48.527Z,4.75
2023-04-10T08:11:50.694Z,5.50
2023-04-10T08:14:52.890Z,5.05
2023-04-10T08:17:55.094Z,4.27
2023-04-10T08:20:57.391Z,4.13
2023-04-10T08:24:00.652Z,4.65
2023-04-10T08:27:02.925Z,4.38
2023-04-10T08:30:05.667Z,3.90
2023-04-10T08:33:07.878Z,3.67
2023-04-10T08:36:10.369Z,3.25
2023-04-10T08:39:12.570Z,4.18
2023-04-10T08:42:14.778Z,3.20
2023-04-10T08:45:16.974Z,3.13
2023-04-10T08:48:20.711Z,3.40
2023-04-10T08:51:26.707Z,3.08
2023-04-10T08:54:29.619Z,3.42
2023-04-10T08:57:32.738Z,3.13
2023-04-10T09:00:35.399Z,3.30
2023-04-10T09:03:37.815Z,3.17
2023-04-10T09:06:40.456Z,3.70
2023-04-10T09:09:42.988Z,3.33
2023-04-10T09:12:46.105Z,3.50
2023-04-10T09:15:58.777Z,2.80
2023-04-10T09:19:04.384Z,3.10
2023-04-10T09:22:07.960Z,3.33
2023-04-10T09:25:28.119Z,4.10
2023-04-10T09:28:30.909Z,4.05
2023-04-10T09:31:37.062Z,4.18
2023-04-10T09:34:52.531Z,4.10
2023-04-10T09:37:54.965Z,3.70
2023-04-10T09:41:06.384Z,4.95
2023-04-10T09:44:09.951Z,4.05
2023-04-10T09:47:18.919Z,4.25
2023-04-10T09:50:36.465Z,4.57
2023-04-10T09:53:51.054Z,4.10
2023-04-10T09:56:53.822Z,3.90
2023-04-10T09:59:56.713Z,4.25
2023-04-10T10:02:59.860Z,4.13
2023-04-10T10:06:02.420Z,4.17
2023-04-10T10:09:05.301Z,3.72
2023-04-10T10:12:08.634Z,3.88
2023-04-10T10:15:23.190Z,3.97
2023-04-10T10:18:25.462Z,3.35
2023-04-10T10:21:28.723Z,3.60
2023-04-10T10:24:31.689Z,3.75
2023-04-10T10:27:36.687Z,3.55
2023-04-10T10:30:39.173Z,3.83
2023-04-10T10:33:41.482Z,4.00
2023-04-10T10:36:43.769Z,3.67
2023-04-10T10:39:49.031Z,3.85
2023-04-10T10:42:56.196Z,3.10
2023-04-10T10:46:01.857Z,3.63
2023-04-10T10:49:04.270Z,4.05
2023-04-10T10:52:06.441Z,3.40
2023-04-10T10:55:24.772Z,3.75
2023-04-10T10:58:47.553Z,3.80
2023-04-10T11:02:08.629Z,3.92
2023-04-10T11:05:31.028Z,4.10
2023-04-10T11:08:33.585Z,3.70
2023-04-10T11:11:56.119Z,3.58
2023-04-10T11:15:02.121Z,3.40
2023-04-10T11:18:04.406Z,3.10
2023-04-10T11:21:10.751Z,3.83
2023-04-10T11:24:12.988Z,3.27
2023-04-10T11:27:33.887Z,3.45
2023-04-10T11:30:36.996Z,3.80
2023-04-10T11:33:39.469Z,2.70
2023-04-10T11:36:42.662Z,3.83
2023-04-10T11:39:44.897Z,3.10
2023-04-10T11:42:48.178Z,3.33
2023-04-10T11:45:50.487Z,3.13
2023-04-10T11:48:53.668Z,3.40
2023-04-10T11:51:56.253Z,3.65
2023-04-10T11:54:58.465Z,2.63
2023-04-10T11:58:01.515Z,3.45
2023-04-10T12:01:04.650Z,3.25
2023-04-10T12:04:19.845Z,3.08
2023-04-10T12:07:23.806Z,2.50
2023-04-10T12:10:26.341Z,3.17
2023-04-10T12:13:28.931Z,3.38
2023-04-10T12:16:32.395Z,3.45
2023-04-10T12:19:35.313Z,4.07
2023-04-10T12:22:37.571Z,3.13
2023-04-10T12:25:41.180Z,3.53
2023-04-10T12:28:51.196Z,2.97
2023-04-10T12:31:53.420Z,3.17
2023-04-10T12:35:01.505Z,3.80
2023-04-10T12:38:03.785Z,3.97
2023-04-10T12:41:07.153Z,3.20
2023-04-10T12:44:11.084Z,3.60
2023-04-10T12:47:13.277Z,3.42
2023-04-10T12:50:16.544Z,3.63
2023-04-10T12:53:18.887Z,3.38
2023-04-10T12:56:21.126Z,3.57
2023-04-10T12:59:24.691Z,3.03
2023-04-10T13:02:27.801Z,2.88
2023-04-10T13:05:30.348Z,2.63
2023-04-10T13:08:32.722Z,3.30
2023-04-10T13:11:34.934Z,3.13
2023-04-10T13:14:37.521Z,3.55
2023-04-10T13:17:41.105Z,2.90
2023-04-10T13:20:43.357Z,3.22
2023-04-10T13:23:47.103Z,3.17
2023-04-10T13:26:49.438Z,2.53
2023-04-10T13:29:51.738Z,3.00
2023-04-10T13:32:54.258Z,2.83
2023-04-10T13:35:56.605Z,3.35
2023-04-10T13:38:58.897Z,3.00
2023-04-10T13:42:02.243Z,3.20
2023-04-10T13:45:04.965Z,3.10
2023-04-10T13:48:07.631Z,2.60
2023-04-10T13:51:09.911Z,2.78
2023-04-10T13:54:12.200Z,3.00
2023-04-10T13:57:14.475Z,2.60
2023-04-10T14:00:17.884Z,2.45
2023-04-10T14:03:20.189Z,3.10
2023-04-10T14:06:22.465Z,3.25
2023-04-10T14:09:24.761Z,2.83
2023-04-10T14:12:27.497Z,2.83
2023-04-10T14:15:29.703Z,2.63
2023-04-10T14:18:31.959Z,2.78
2023-04-10T14:21:34.220Z,3.00
2023-04-10T14:24:36.405Z,2.30
2023-04-10T14:27:38.699Z,2.77
2023-04-10T14:30:40.901Z,3.38
2023-04-10T14:33:43.202Z,3.03
2023-04-10T14:36:45.403Z,2.60
2023-04-10T14:39:47.581Z,2.85
2023-04-10T14:42:49.779Z,2.97
2023-04-10T14:45:52.038Z,2.90
2023-04-10T14:48:54.288Z,3.03
2023-04-10T14:51:56.520Z,3.42
2023-04-10T14:54:58.674Z,3.22
2023-04-10T14:58:00.886Z,3.17
2023-04-10T15:01:03.150Z,3.20
2023-04-10T15:04:05.610Z,2.85
2023-04-10T15:07:07.897Z,3.10
2023-04-10T15:10:12.972Z,3.03
2023-04-10T15:13:15.566Z,2.67
2023-04-10T15:16:17.936Z,3.00
2023-04-10T15:19:20.295Z,2.70
2023-04-10T15:22:22.523Z,2.58
2023-04-10T15:25:24.754Z,2.90
2023-04-10T15:28:28.296Z,2.80
2023-04-10T15:31:30.806Z,2.70
2023-04-10T15:34:33.052Z,2.83
2023-04-10T15:37:35.266Z,3.00
2023-04-10T15:40:37.484Z,2.67
2023-04-10T15:43:39.695Z,2.43
2023-04-10T15:46:42.588Z,2.67
2023-04-10T15:49:44.783Z,2.92
2023-04-10T15:52:47.098Z,3.03
2023-04-10T15:55:49.347Z,2.72
2023-04-10T15:58:51.598Z,2.70
2023-04-10T16:01:53.948Z,2.88
2023-04-10T16:04:56.412Z,2.97
2023-04-10T16:07:58.806Z,2.47
2023-04-10T16:11:01.073Z,2.80
2023-04-10T16:14:03.303Z,2.97
2023-04-10T16:17:05.528Z,2.42
2023-04-10T16:20:08.056Z,2.53
2023-04-10T16:23:10.417Z,2.65
2023-04-10T16:26:12.655Z,3.15
2023-04-10T16:29:16.072Z,3.23
2023-04-10T16:32:18.777Z,2.97
2023-04-10T16:35:22.474Z,2.83
2023-04-10T16:38:24.808Z,2.47
2023-04-10T16:41:27.007Z,2.83
2023-04-10T16:44:29.526Z,3.03
2023-04-10T16:47:31.717Z,3.03
2023-04-10T16:50:36.990Z,2.97
2023-04-10T16:53:39.198Z,2.92
2023-04-10T16:56:41.849Z,2.60
2023-04-10T16:59:44.231Z,3.20
2023-04-10T17:02:47.558Z,3.13
2023-04-10T17:05:49.795Z,3.10
2023-04-10T17:08:51.986Z,2.90
2023-04-10T17:11:54.250Z,2.90
2023-04-10T17:14:56.506Z,2.97
2023-04-10T17:17:58.741Z,3.22
2023-04-10T17:21:01.060Z,2.92
2023-04-10T17:24:03.517Z,2.80
2023-04-10T17:27:05.823Z,3.08
2023-04-10T17:30:11.000Z,3.47
2023-04-10T17:33:13.222Z,3.22
2023-04-10T17:36:15.577Z,3.05
2023-04-10T17:39:17.819Z,3.10
2023-04-10T17:42:20.085Z,3.20
2023-04-10T17:45:22.441Z,2.73
2023-04-10T17:48:25.009Z,3.20
2023-04-10T17:51:27.655Z,2.70
2023-04-10T17:54:29.856Z,3.30
2023-04-10T17:57:32.136Z,3.90
2023-04-10T18:00:34.556Z,4.10
2023-04-10T18:03:36.856Z,3.88
2023-04-10T18:06:40.939Z,4.18
2023-04-10T18:09:43.206Z,3.15
2023-04-10T18:12:45.931Z,3.78
2023-04-10T18:15:49.335Z,3.40
2023-04-10T18:18:51.568Z,3.67
2023-04-10T18:21:53.853Z,4.18
2023-04-10T18:24:56.185Z,4.20
2023-04-10T18:28:13.801Z,4.05
2023-04-10T18:31:18.978Z,4.60
2023-04-10T18:34:21.503Z,4.80
2023-04-10T18:37:23.772Z,5.22
2023-04-10T18:40:26.217Z,4.32
2023-04-10T18:43:28.445Z,4.10
2023-04-10T18:46:32.528Z,4.10
2023-04-10T18:49:35.220Z,3.72
2023-04-10T18:52:37.463Z,3.45
2023-04-10T18:55:39.684Z,3.42
2023-04-10T18:58:42.029Z,3.20
2023-04-10T19:01:44.558Z,4.27
2023-04-10T19:04:47.158Z,3.85
2023-04-10T19:08:00.678Z,3.63
2023-04-10T19:11:08.848Z,3.45
2023-04-10T19:14:11.304Z,3.83
2023-04-10T19:17:13.634Z,3.13
2023-04-10T19:20:16.096Z,4.10
2023-04-10T19:23:18.874Z,4.40
2023-04-10T19:26:21.331Z,4.00
2023-04-10T19:29:23.870Z,4.20
2023-04-10T19:32:26.194Z,5.17
2023-04-10T19:35:28.536Z,4.40
2023-04-10T19:38:32.347Z,4.90
2023-04-10T19:41:34.782Z,5.70
2023-04-10T19:44:37.196Z,5.30
2023-04-10T19:47:39.496Z,5.07
2023-04-10T19:50:42.032Z,5.07
2023-04-10T19:53:44.442Z,4.93
2023-04-10T19:56:46.601Z,5.03
2023-04-10T19:59:48.897Z,4.68
2023-04-10T20:02:51.301Z,5.70
2023-04-10T20:05:53.754Z,5.18
2023-04-10T20:08:56.358Z,6.13
2023-04-10T20:11:58.706Z,5.28
2023-04-10T20:15:01.307Z,6.22
2023-04-10T20:18:04.929Z,5.67
2023-04-10T20:21:08.257Z,5.90
2023-04-10T20:24:10.593Z,5.95
2023-04-10T20:27:14.450Z,6.10
2023-04-10T20:30:16.663Z,6.22
2023-04-10T20:33:18.888Z,5.87
2023-04-10T20:36:21.193Z,5.90
2023-04-10T20:39:23.787Z,6.03
2023-04-10T20:42:26.029Z,5.85
2023-04-10T20:45:28.326Z,6.25
2023-04-10T20:48:31.096Z,6.37
2023-04-10T20:51:37.165Z,5.65
2023-04-10T20:54:39.428Z,6.35
2023-04-10T20:57:41.642Z,6.15
2023-04-10T21:00:43.966Z,5.90
2023-04-10T21:03:46.328Z,5.13
2023-04-10T21:06:48.565Z,5.97
2023-04-10T21:09:50.833Z,5.85
2023-04-10T21:12:52.974Z,5.13
2023-04-10T21:15:55.326Z,5.53
2023-04-10T21:18:57.585Z,5.60
2023-04-10T21:21:59.836Z,5.57
2023-04-10T21:25:01.990Z,6.47
2023-04-10T21:28:04.239Z,6.38
2023-04-10T21:31:06.568Z,6.20
2023-04-10T21:34:08.867Z,5.87
2023-04-10T21:37:11.159Z,5.72
2023-04-10T21:40:13.390Z,5.47
2023-04-10T21:43:15.813Z,5.40
2023-04-10T21:46:18.033Z,6.13
2023-04-10T21:49:20.273Z,6.07
2023-04-10T21:52:22.484Z,5.00
2023-04-10T21:55:24.702Z,6.47
2023-04-10T21:58:26.916Z,6.00
2023-04-10T22:01:29.143Z,5.38
2023-04-10T22:04:33.070Z,5.10
2023-04-10T22:07:35.548Z,5.10
2023-04-10T22:10:38.118Z,5.90
2023-04-10T22:13:40.278Z,5.72
2023-04-10T22:16:42.502Z,7.53
2023-04-10T22:19:44.764Z,8.53
2023-04-10T22:22:47.381Z,7.20
2023-04-10T22:25:49.807Z,8.80
2023-04-10T22:28:52.088Z,9.60
2023-04-10T22:31:54.501Z,11.38
2023-04-10T22:34:58.168Z,8.83
2023-04-10T22:38:00.484Z,7.07
2023-04-10T22:41:02.665Z,6.95
2023-04-10T22:44:05.112Z,7.13
2023-04-10T22:47:07.355Z,6.70
2023-04-10T22:50:09.577Z,7.43
2023-04-10T22:53:12.008Z,6.60
2023-04-10T22:56:14.292Z,7.38
2023-04-10T22:59:18.419Z,5.72
2023-04-10T23:02:20.779Z,5.95
2023-04-10T23:05:22.961Z,6.50
2023-04-10T23:08:25.386Z,6.25
2023-04-10T23:11:27.630Z,6.05
2023-04-10T23:14:29.955Z,6.15
2023-04-10T23:17:32.239Z,6.68
2023-04-10T23:20:35.308Z,6.30
2023-04-10T23:23:37.586Z,5.68
2023-04-10T23:26:39.747Z,6.10
2023-04-10T23:29:41.920Z,5.82
2023-04-10T23:32:44.101Z,5.20
2023-04-10T23:35:46.444Z,5.70
2023-04-10T23:38:48.678Z,8.68
2023-04-10T23:41:50.929Z,7.15
2023-04-10T23:44:53.207Z,5.60
2023-04-10T23:47:55.440Z,6.40
2023-04-10T23:51:07.746Z,5.77
2023-04-10T23:54:10.031Z,5.57
2023-04-10T23:57:12.255Z,5.05
